createdAt,value
2019-05-11T00:00:42.795Z,95659.88
2019-05-11T00:03:09.055Z,95666.30
2019-05-11T00:05:35.124Z,95659.72
2019-05-11T00:08:01.338Z,95646.22
2019-05-11T00:10:27.450Z,95643.43
2019-05-11T00:12:53.673Z,95637.02
2019-05-11T00:15:20.012Z,95629.62
2019-05-11T00:17:46.214Z,95627.15
2019-05-11T00:20:13.090Z,95620.56
2019-05-11T00:22:40.577Z,95613.98
2019-05-11T00:25:08.310Z,95606.23
2019-05-11T00:27:34.591Z,95599.12
2019-05-11T00:30:00.799Z,95603.39
2019-05-11T00:32:26.994Z,95599.77
2019-05-11T00:34:55.215Z,95584.60
2019-05-11T00:37:22.223Z,95592.81
2019-05-11T00:39:48.551Z,95594.80
2019-05-11T00:42:14.766Z,95590.81
2019-05-11T00:44:41.093Z,95594.12
2019-05-11T00:47:07.253Z,95587.50
2019-05-11T00:49:33.402Z,95594.59
2019-05-11T00:51:59.752Z,95581.59
2019-05-11T00:54:25.916Z,95586.66
2019-05-11T00:56:52.222Z,95586.81
2019-05-11T00:59:21.633Z,95590.91
2019-05-11T01:01:47.192Z,95603.75
2019-05-11T01:04:13.676Z,95605.07
2019-05-11T01:06:39.880Z,95594.54
2019-05-11T01:09:06.212Z,95579.73
2019-05-11T01:11:32.525Z,95576.42
2019-05-11T01:13:58.624Z,95558.00
2019-05-11T01:16:24.835Z,95561.47
2019-05-11T01:18:51.064Z,95567.05
2019-05-11T01:21:17.372Z,95566.42
2019-05-11T01:23:43.584Z,95562.47
2019-05-11T01:26:09.783Z,95556.37
2019-05-11T01:28:36.004Z,95552.90
2019-05-11T01:31:02.159Z,95565.74
2019-05-11T01:33:28.349Z,95568.38
2019-05-11T01:35:54.530Z,95568.70
2019-05-11T01:38:20.686Z,95574.80
2019-05-11T01:40:58.111Z,95574.80
2019-05-11T01:43:14.882Z,95568.70
2019-05-11T01:45:41.056Z,95570.84
2019-05-11T01:48:07.273Z,95568.54
2019-05-11T01:50:33.500Z,95563.80
2019-05-11T01:52:59.674Z,95549.99
2019-05-11T01:55:25.848Z,95543.42
2019-05-11T01:57:52.002Z,95531.89
2019-05-11T02:00:20.187Z,95523.35
2019-05-11T02:02:46.382Z,95517.09
2019-05-11T02:05:28.582Z,95509.19
2019-05-11T02:07:55.736Z,95501.12
2019-05-11T02:10:22.008Z,95509.67
2019-05-11T02:12:48.176Z,95525.31
2019-05-11T02:15:14.352Z,95531.25
2019-05-11T02:17:40.572Z,95545.38
2019-05-11T02:20:06.935Z,95543.09
2019-05-11T02:22:33.103Z,95535.00
2019-05-11T02:25:00.358Z,95520.72
2019-05-11T02:27:26.596Z,95508.39
2019-05-11T02:29:52.743Z,95496.70
2019-05-11T02:32:18.949Z,95496.22
2019-05-11T02:34:45.067Z,95486.17
2019-05-11T02:37:11.362Z,95492.11
2019-05-11T02:39:37.587Z,95497.86
2019-05-11T02:42:03.928Z,95498.02
2019-05-11T02:44:30.074Z,95496.06
2019-05-11T02:46:56.242Z,95486.69
2019-05-11T02:49:22.444Z,95484.21
2019-05-11T02:51:48.914Z,95487.36
2019-05-11T02:54:15.387Z,95489.51
2019-05-11T02:56:41.567Z,95480.96
2019-05-11T02:59:07.671Z,95481.13
2019-05-11T03:01:34.137Z,95478.33
2019-05-11T03:04:00.329Z,95481.78
2019-05-11T03:06:26.427Z,95484.42
2019-05-11T03:08:52.608Z,95480.79
2019-05-11T03:11:18.786Z,95481.30
2019-05-11T03:13:44.986Z,95480.63
2019-05-11T03:16:11.260Z,95474.70
2019-05-11T03:18:37.506Z,95475.55
2019-05-11T03:21:03.632Z,95483.92
2019-05-11T03:23:29.868Z,95487.23
2019-05-11T03:25:56.072Z,95490.70
2019-05-11T03:28:22.455Z,95494.14
2019-05-11T03:30:48.699Z,95487.55
2019-05-11T03:33:14.988Z,95492.02
2019-05-11T03:35:41.378Z,95490.84
2019-05-11T03:38:07.702Z,95486.56
2019-05-11T03:40:34.054Z,95487.39
2019-05-11T03:43:00.301Z,95497.13
2019-05-11T03:45:26.416Z,95496.48
2019-05-11T03:47:52.761Z,95495.80
2019-05-11T03:50:19.238Z,95498.95
2019-05-11T03:52:45.419Z,95500.27
2019-05-11T03:55:12.393Z,95504.70
2019-05-11T03:57:38.649Z,95505.54
2019-05-11T04:00:05.973Z,95504.37
2019-05-11T04:02:32.238Z,95503.37
2019-05-11T04:04:58.580Z,95504.37
2019-05-11T04:07:25.075Z,95504.72
2019-05-11T04:09:51.328Z,95509.83
2019-05-11T04:12:33.436Z,95502.72
2019-05-11T04:14:45.588Z,95497.31
2019-05-11T04:17:11.764Z,95499.95
2019-05-11T04:19:39.045Z,95512.97
2019-05-11T04:22:05.379Z,95509.02
2019-05-11T04:24:39.362Z,95511.31
2019-05-11T04:27:05.663Z,95489.91
2019-05-11T04:29:31.841Z,95471.74
2019-05-11T04:31:58.022Z,95470.27
2019-05-11T04:34:24.202Z,95481.95
2019-05-11T04:36:50.368Z,95477.01
2019-05-11T04:39:16.677Z,95471.22
2019-05-11T04:41:42.950Z,95469.39
2019-05-11T04:44:09.157Z,95468.89
2019-05-11T04:46:35.301Z,95472.52
2019-05-11T04:49:01.643Z,95468.69
2019-05-11T04:51:27.810Z,95466.37
2019-05-11T04:53:53.964Z,95468.50
2019-05-11T04:56:20.125Z,95472.61
2019-05-11T04:58:46.294Z,95472.61
2019-05-11T05:01:12.480Z,95459.90
2019-05-11T05:03:41.281Z,95457.89
2019-05-11T05:06:22.291Z,95456.06
2019-05-11T05:08:36.288Z,95457.52
2019-05-11T05:11:02.453Z,95450.75
2019-05-11T05:13:29.559Z,95445.61
2019-05-11T05:15:56.719Z,95440.16
2019-05-11T05:18:22.917Z,95435.05
2019-05-11T05:20:49.083Z,95443.29
2019-05-11T05:23:15.261Z,95439.47
2019-05-11T05:25:42.473Z,95437.00
2019-05-11T05:28:08.576Z,95431.38
2019-05-11T05:30:34.783Z,95432.34
2019-05-11T05:33:00.921Z,95432.97
2019-05-11T05:35:27.174Z,95431.75
2019-05-11T05:37:53.391Z,95434.98
2019-05-11T05:40:19.502Z,95438.45
2019-05-11T05:42:45.745Z,95439.95
2019-05-11T05:45:12.104Z,95437.76
2019-05-11T05:47:38.281Z,95434.45
2019-05-11T05:50:05.354Z,95435.45
2019-05-11T05:52:31.514Z,95437.27
2019-05-11T05:54:57.746Z,95433.63
2019-05-11T05:57:23.945Z,95432.95
2019-05-11T05:59:51.135Z,95433.58
2019-05-11T06:02:18.361Z,95423.48
2019-05-11T06:04:44.655Z,95426.61
2019-05-11T06:07:11.892Z,95423.62
2019-05-11T06:09:38.030Z,95424.24
2019-05-11T06:12:04.264Z,95419.47
2019-05-11T06:14:30.363Z,95420.28
2019-05-11T06:16:56.581Z,95415.83
2019-05-11T06:19:23.308Z,95423.93
2019-05-11T06:21:49.853Z,95419.97
2019-05-11T06:24:16.218Z,95423.09
2019-05-11T06:26:42.542Z,95429.88
2019-05-11T06:29:08.642Z,95422.47
2019-05-11T06:31:35.291Z,95431.72
2019-05-11T06:34:01.562Z,95422.83
2019-05-11T06:36:27.786Z,95437.67
2019-05-11T06:38:53.901Z,95429.25
2019-05-11T06:41:20.151Z,95434.86
2019-05-11T06:44:00.764Z,95436.17
2019-05-11T06:46:14.392Z,95439.17
2019-05-11T06:48:40.585Z,95436.61
2019-05-11T06:51:06.791Z,95437.66
2019-05-11T06:53:32.952Z,95440.30
2019-05-11T06:55:59.189Z,95435.37
2019-05-11T06:58:25.368Z,95432.52
2019-05-11T07:00:51.628Z,95427.98
2019-05-11T07:03:17.829Z,95421.64
2019-05-11T07:05:45.798Z,95426.22
2019-05-11T07:08:11.957Z,95424.41
2019-05-11T07:10:38.190Z,95420.45
2019-05-11T07:13:04.458Z,95421.99
2019-05-11T07:15:30.643Z,95425.03
2019-05-11T07:17:56.845Z,95432.99
2019-05-11T07:20:23.066Z,95425.59
2019-05-11T07:22:49.261Z,95434.05
2019-05-11T07:25:15.505Z,95435.86
2019-05-11T07:27:41.773Z,95427.97
2019-05-11T07:30:08.721Z,95423.38
2019-05-11T07:32:35.007Z,95421.79
2019-05-11T07:35:01.192Z,95407.64
2019-05-11T07:37:27.992Z,95408.82
2019-05-11T07:39:54.323Z,95412.92
2019-05-11T07:42:20.500Z,95401.39
2019-05-11T07:44:48.135Z,95395.28
2019-05-11T07:47:14.427Z,95403.20
2019-05-11T07:49:40.607Z,95397.57
2019-05-11T07:52:07.768Z,95407.33
2019-05-11T07:54:35.152Z,95404.52
2019-05-11T07:57:01.961Z,95395.77
2019-05-11T07:59:28.995Z,95391.48
2019-05-11T08:01:58.347Z,95378.77
2019-05-11T08:04:24.544Z,95378.25
2019-05-11T08:06:50.747Z,95377.90
2019-05-11T08:09:18.649Z,95370.77
2019-05-11T08:11:44.985Z,95361.18
2019-05-11T08:14:11.188Z,95356.55
2019-05-11T08:16:39.009Z,95340.18
2019-05-11T08:19:09.818Z,95336.22
2019-05-11T08:21:33.966Z,95326.44
2019-05-11T08:24:00.275Z,95328.73
2019-05-11T08:26:28.254Z,95321.06
2019-05-11T08:28:54.780Z,95313.27
2019-05-11T08:31:21.000Z,95308.47
2019-05-11T08:33:48.032Z,95297.30
2019-05-11T08:36:14.543Z,95307.06
2019-05-11T08:38:40.713Z,95305.44
2019-05-11T08:41:08.038Z,95314.52
2019-05-11T08:43:34.502Z,95321.41
2019-05-11T08:46:00.618Z,95329.00
2019-05-11T08:48:28.253Z,95336.31
2019-05-11T08:50:54.698Z,95342.13
2019-05-11T08:53:20.999Z,95346.34
2019-05-11T08:55:48.511Z,95347.14
2019-05-11T08:58:15.082Z,95343.00
2019-05-11T09:00:41.243Z,95341.33
2019-05-11T09:03:08.557Z,95341.55
2019-05-11T09:05:34.870Z,95329.53
2019-05-11T09:08:01.222Z,95313.51
2019-05-11T09:10:28.260Z,95320.73
2019-05-11T09:12:54.522Z,95316.41
2019-05-11T09:15:33.558Z,95320.02
2019-05-11T09:17:48.971Z,95327.81
2019-05-11T09:20:18.012Z,95329.70
2019-05-11T09:22:44.129Z,95326.52
2019-05-11T09:25:10.605Z,95320.52
2019-05-11T09:27:37.668Z,95311.41
2019-05-11T09:30:08.091Z,95305.85
2019-05-11T09:32:33.698Z,95303.20
2019-05-11T09:35:00.052Z,95292.20
2019-05-11T09:37:27.717Z,95296.42
2019-05-11T09:39:54.280Z,95296.11
2019-05-11T09:42:20.530Z,95290.10
2019-05-11T09:44:48.525Z,95284.41
2019-05-11T09:47:14.845Z,95275.30
2019-05-11T09:49:47.498Z,95281.79
2019-05-11T09:52:09.238Z,95287.23
2019-05-11T09:54:35.341Z,95292.63
2019-05-11T09:57:01.572Z,95297.33
2019-05-11T09:59:28.328Z,95297.82
2019-05-11T10:01:54.718Z,95296.69
2019-05-11T10:04:21.015Z,95292.71
2019-05-11T10:06:48.098Z,95294.56
2019-05-11T10:09:14.340Z,95283.97
2019-05-11T10:11:40.697Z,95291.73
2019-05-11T10:14:08.478Z,95297.02
2019-05-11T10:16:35.012Z,95291.94
2019-05-11T10:19:01.118Z,95283.08
2019-05-11T10:21:27.913Z,95277.91
2019-05-11T10:23:54.194Z,95286.36
2019-05-11T10:26:20.546Z,95285.77
2019-05-11T10:28:48.125Z,95282.41
2019-05-11T10:31:14.705Z,95285.89
2019-05-11T10:33:42.114Z,95280.53
2019-05-11T10:36:08.527Z,95276.81
2019-05-11T10:38:34.645Z,95283.48
2019-05-11T10:41:00.872Z,95276.81
2019-05-11T10:43:28.826Z,95280.60
2019-05-11T10:45:55.178Z,95274.73
2019-05-11T10:48:21.479Z,95274.16
2019-05-11T10:50:48.415Z,95275.58
2019-05-11T10:53:14.698Z,95262.78
2019-05-11T10:55:40.873Z,95264.21
2019-05-11T10:58:08.622Z,95255.95
2019-05-11T11:00:34.913Z,95262.89
2019-05-11T11:03:01.221Z,95260.27
2019-05-11T11:05:28.035Z,95257.56
2019-05-11T11:07:54.318Z,95258.50
2019-05-11T11:10:20.722Z,95251.89
2019-05-11T11:12:48.951Z,95259.91
2019-05-11T11:15:15.269Z,95253.14
2019-05-11T11:17:41.627Z,95252.09
2019-05-11T11:20:08.881Z,95250.50
2019-05-11T11:22:40.392Z,95251.35
2019-05-11T11:25:07.696Z,95249.70
2019-05-11T11:27:34.678Z,95241.27
2019-05-11T11:30:00.897Z,95236.95
2019-05-11T11:32:27.835Z,95239.94
2019-05-11T11:34:57.583Z,95244.58
2019-05-11T11:37:23.313Z,95244.09
2019-05-11T11:39:49.433Z,95243.83
2019-05-11T11:42:17.758Z,95245.53
2019-05-11T11:44:43.717Z,95228.52
2019-05-11T11:47:10.946Z,95227.31
2019-05-11T11:49:38.337Z,95229.89
2019-05-11T11:52:04.840Z,95232.53
2019-05-11T11:54:30.971Z,95230.63
2019-05-11T11:56:58.927Z,95231.36
2019-05-11T11:59:25.290Z,95234.85
2019-05-11T12:01:51.530Z,95238.63
2019-05-11T12:04:18.821Z,95242.09
2019-05-11T12:06:45.175Z,95244.84
2019-05-11T12:09:11.507Z,95243.92
2019-05-11T12:11:38.188Z,95248.50
2019-05-11T12:14:04.553Z,95247.17
2019-05-11T12:16:30.783Z,95248.67
2019-05-11T12:18:57.829Z,95250.44
2019-05-11T12:21:24.052Z,95246.49
2019-05-11T12:23:50.355Z,95254.77
2019-05-11T12:26:17.744Z,95256.48
2019-05-11T12:28:44.195Z,95260.13
2019-05-11T12:31:10.512Z,95261.45
2019-05-11T12:33:38.576Z,95266.19
2019-05-11T12:36:04.864Z,95275.33
2019-05-11T12:38:30.972Z,95273.61
2019-05-11T12:40:57.932Z,95275.49
2019-05-11T12:43:24.297Z,95282.42
2019-05-11T12:45:51.356Z,95284.85
2019-05-11T12:48:18.215Z,95283.53
2019-05-11T12:50:48.244Z,95283.13
2019-05-11T12:53:14.040Z,95284.91
2019-05-11T12:55:40.269Z,95288.06
2019-05-11T12:58:08.551Z,95288.30
2019-05-11T13:00:34.601Z,95292.70
2019-05-11T13:03:00.875Z,95301.62
2019-05-11T13:05:28.547Z,95301.63
2019-05-11T13:07:55.117Z,95307.61
2019-05-11T13:10:21.348Z,95315.13
2019-05-11T13:12:49.354Z,95308.09
2019-05-11T13:15:17.557Z,95304.30
2019-05-11T13:17:43.960Z,95297.33
2019-05-11T13:20:12.871Z,95302.62
2019-05-11T13:22:38.988Z,95291.63
2019-05-11T13:25:05.894Z,95301.97
2019-05-11T13:27:32.215Z,95313.64
2019-05-11T13:29:59.193Z,95324.83
2019-05-11T13:32:28.197Z,95329.20
2019-05-11T13:34:55.136Z,95339.79
2019-05-11T13:37:21.727Z,95339.14
2019-05-11T13:39:48.668Z,95327.76
2019-05-11T13:42:15.111Z,95330.98
2019-05-11T13:44:42.352Z,95321.95
2019-05-11T13:47:08.706Z,95325.23
2019-05-11T13:49:34.947Z,95334.90
2019-05-11T13:52:01.249Z,95337.69
2019-05-11T13:54:29.648Z,95345.95
2019-05-11T13:56:57.635Z,95340.45
2019-05-11T13:59:24.192Z,95343.95
2019-05-11T14:01:50.497Z,95347.77
2019-05-11T14:04:18.212Z,95351.55
2019-05-11T14:06:44.888Z,95352.44
2019-05-11T14:09:11.159Z,95347.36
2019-05-11T14:11:39.101Z,95358.91
2019-05-11T14:14:07.597Z,95360.02
2019-05-11T14:16:33.623Z,95359.77
2019-05-11T14:19:00.996Z,95359.26
2019-05-11T14:21:27.986Z,95364.20
2019-05-11T14:23:54.449Z,95365.25
2019-05-11T14:26:20.702Z,95363.19
2019-05-11T14:28:47.973Z,95362.98
2019-05-11T14:31:14.396Z,95366.16
2019-05-11T14:33:41.440Z,95368.79
2019-05-11T14:36:08.634Z,95368.69
2019-05-11T14:38:35.394Z,95388.41
2019-05-11T14:41:01.737Z,95391.69
2019-05-11T14:43:27.983Z,95386.19
2019-05-11T14:45:54.101Z,95394.27
2019-05-11T14:48:26.256Z,95407.83
2019-05-11T14:50:49.007Z,95414.22
2019-05-11T14:53:17.720Z,95426.78
2019-05-11T14:55:43.671Z,95428.33
2019-05-11T14:58:09.970Z,95438.57
2019-05-11T15:00:38.948Z,95448.90
2019-05-11T15:03:04.628Z,95442.34
2019-05-11T15:05:30.941Z,95451.34
2019-05-11T15:07:58.209Z,95452.01
2019-05-11T15:10:24.934Z,95454.45
2019-05-11T15:12:51.215Z,95446.67
2019-05-11T15:15:18.689Z,95452.45
2019-05-11T15:17:45.282Z,95451.66
2019-05-11T15:20:12.789Z,95443.98
2019-05-11T15:22:38.926Z,95448.92
2019-05-11T15:25:08.946Z,95438.62
2019-05-11T15:27:35.195Z,95442.25
2019-05-11T15:30:01.778Z,95452.88
2019-05-11T15:32:28.584Z,95445.50
2019-05-11T15:34:57.477Z,95453.48
2019-05-11T15:37:23.517Z,95460.16
2019-05-11T15:39:49.822Z,95464.77
2019-05-11T15:42:19.561Z,95468.23
2019-05-11T15:44:44.406Z,95470.89
2019-05-11T15:47:10.565Z,95474.57
2019-05-11T15:49:37.628Z,95475.52
2019-05-11T15:52:04.966Z,95474.71
2019-05-11T15:54:31.356Z,95480.92
2019-05-11T15:56:59.867Z,95477.98
2019-05-11T15:59:27.891Z,95482.16
2019-05-11T16:01:54.665Z,95480.84
2019-05-11T16:04:21.132Z,95495.98
2019-05-11T16:06:47.429Z,95500.36
2019-05-11T16:09:13.664Z,95501.26
2019-05-11T16:11:39.782Z,95503.00
2019-05-11T16:14:08.786Z,95511.58
2019-05-11T16:16:35.381Z,95506.73
2019-05-11T16:19:11.761Z,95505.06
2019-05-11T16:21:29.799Z,95513.40
2019-05-11T16:23:57.982Z,95517.24
2019-05-11T16:26:24.183Z,95517.03
2019-05-11T16:28:50.330Z,95519.75
2019-05-11T16:31:17.989Z,95520.05
2019-05-11T16:33:44.195Z,95527.86
2019-05-11T16:36:10.532Z,95522.25
2019-05-11T16:38:37.978Z,95532.03
2019-05-11T16:41:04.584Z,95532.72
2019-05-11T16:43:30.774Z,95546.58
2019-05-11T16:45:57.978Z,95550.09
2019-05-11T16:48:24.237Z,95549.34
2019-05-11T16:50:50.795Z,95553.90
2019-05-11T16:53:18.164Z,95556.00
2019-05-11T16:55:45.387Z,95549.22
2019-05-11T16:58:11.976Z,95559.72
2019-05-11T17:00:41.957Z,95558.47
2019-05-11T17:03:06.278Z,95568.33
2019-05-11T17:05:33.913Z,95562.65
2019-05-11T17:08:00.207Z,95573.69
2019-05-11T17:10:28.355Z,95572.81
2019-05-11T17:12:54.461Z,95575.04
2019-05-11T17:15:20.713Z,95581.67
2019-05-11T17:17:48.604Z,95585.12
2019-05-11T17:20:18.201Z,95590.20
2019-05-11T17:22:43.954Z,95591.62
2019-05-11T17:25:10.427Z,95593.33
2019-05-11T17:27:37.699Z,95593.58
2019-05-11T17:30:08.431Z,95599.26
2019-05-11T17:32:34.264Z,95602.97
2019-05-11T17:35:00.708Z,95611.36
2019-05-11T17:37:28.545Z,95621.13
2019-05-11T17:39:55.109Z,95625.66
2019-05-11T17:42:21.209Z,95631.58
2019-05-11T17:44:48.450Z,95632.16
2019-05-11T17:47:14.862Z,95637.05
2019-05-11T17:49:56.008Z,95641.83
2019-05-11T17:52:09.739Z,95650.32
2019-05-11T17:54:38.225Z,95656.29
2019-05-11T17:57:04.281Z,95658.32
2019-05-11T17:59:31.431Z,95659.64
2019-05-11T18:01:58.093Z,95660.14
2019-05-11T18:04:24.564Z,95664.66
2019-05-11T18:06:50.939Z,95671.81
2019-05-11T18:09:18.736Z,95677.52
2019-05-11T18:11:45.183Z,95687.68
2019-05-11T18:14:11.338Z,95692.63
2019-05-11T18:16:37.476Z,95689.67
2019-05-11T18:19:03.752Z,95689.19
2019-05-11T18:21:29.964Z,95693.21
2019-05-11T18:23:56.248Z,95693.13
2019-05-11T18:26:22.404Z,95696.79
2019-05-11T18:28:48.595Z,95693.30
2019-05-11T18:31:14.872Z,95698.25
2019-05-11T18:33:41.157Z,95705.92
2019-05-11T18:36:08.096Z,95713.42
2019-05-11T18:38:34.271Z,95709.80
2019-05-11T18:41:00.641Z,95720.08
2019-05-11T18:43:28.082Z,95721.89
2019-05-11T18:45:57.516Z,95724.75
2019-05-11T18:48:23.862Z,95732.20
2019-05-11T18:50:50.096Z,95736.86
2019-05-11T18:53:18.417Z,95737.21
2019-05-11T18:55:45.140Z,95734.91
2019-05-11T18:58:11.781Z,95741.53
2019-05-11T19:00:38.244Z,95745.84
2019-05-11T19:03:04.802Z,95743.72
2019-05-11T19:05:31.203Z,95740.30
2019-05-11T19:07:58.433Z,95750.07
2019-05-11T19:10:24.792Z,95757.02
2019-05-11T19:12:50.965Z,95763.50
2019-05-11T19:15:19.004Z,95750.47
2019-05-11T19:17:45.394Z,95749.14
2019-05-11T19:20:11.606Z,95765.17
2019-05-11T19:22:37.816Z,95770.45
2019-05-11T19:25:05.825Z,95775.09
2019-05-11T19:27:32.005Z,95780.72
2019-05-11T19:29:58.196Z,95782.40
2019-05-11T19:32:28.076Z,95789.66
2019-05-11T19:34:54.571Z,95791.67
2019-05-11T19:37:20.739Z,95796.45
2019-05-11T19:39:50.588Z,95809.00
2019-05-11T19:42:17.856Z,95812.80
2019-05-11T19:44:44.151Z,95822.72
2019-05-11T19:47:10.346Z,95829.34
2019-05-11T19:49:38.403Z,95831.66
2019-05-11T19:52:04.702Z,95837.27
2019-05-11T19:54:31.022Z,95843.85
2019-05-11T19:56:57.778Z,95851.79
2019-05-11T19:59:24.014Z,95858.72
2019-05-11T20:01:50.199Z,95869.27
2019-05-11T20:04:18.628Z,95882.15
2019-05-11T20:06:44.565Z,95886.76
2019-05-11T20:09:10.793Z,95888.08
2019-05-11T20:11:38.422Z,95895.33
2019-05-11T20:14:04.956Z,95899.94
2019-05-11T20:16:31.062Z,95905.73
2019-05-11T20:18:57.782Z,95908.17
2019-05-11T20:21:24.032Z,95909.02
2019-05-11T20:23:50.278Z,95914.45
2019-05-11T20:26:18.091Z,95923.70
2019-05-11T20:28:44.390Z,95923.86
2019-05-11T20:31:10.511Z,95931.61
2019-05-11T20:33:38.518Z,95945.61
2019-05-11T20:36:04.930Z,95942.13
2019-05-11T20:38:31.257Z,95959.60
2019-05-11T20:40:57.857Z,95957.44
2019-05-11T20:43:24.183Z,95966.82
2019-05-11T20:45:50.579Z,95964.50
2019-05-11T20:48:18.493Z,95969.09
2019-05-11T20:50:44.774Z,95967.77
2019-05-11T20:53:11.040Z,95961.48
2019-05-11T20:55:37.712Z,95975.14
2019-05-11T20:58:03.890Z,95971.97
2019-05-11T21:00:30.176Z,95978.24
2019-05-11T21:02:58.658Z,95981.52
2019-05-11T21:05:24.402Z,95993.88
2019-05-11T21:07:50.571Z,96003.11
2019-05-11T21:10:16.970Z,95999.28
2019-05-11T21:12:43.174Z,96009.16
2019-05-11T21:15:10.826Z,96005.35
2019-05-11T21:17:37.276Z,96015.41
2019-05-11T21:20:05.159Z,96015.88
2019-05-11T21:22:31.383Z,96029.37
2019-05-11T21:24:58.181Z,96036.28
2019-05-11T21:27:24.453Z,96032.32
2019-05-11T21:29:50.773Z,96039.39
2019-05-11T21:32:18.001Z,96037.87
2019-05-11T21:34:44.419Z,96038.64
2019-05-11T21:37:10.540Z,96043.62
2019-05-11T21:39:37.903Z,96056.09
2019-05-11T21:42:04.209Z,96056.38
2019-05-11T21:44:30.435Z,96058.84
2019-05-11T21:46:56.759Z,96067.67
2019-05-11T21:49:23.025Z,96075.87
2019-05-11T21:52:03.327Z,96088.30
2019-05-11T21:54:17.321Z,96094.78
2019-05-11T21:56:43.679Z,96111.69
2019-05-11T21:59:09.852Z,96108.22
2019-05-11T22:01:38.497Z,96109.64
2019-05-11T22:04:04.544Z,96110.84
2019-05-11T22:06:30.836Z,96108.17
2019-05-11T22:08:58.949Z,96118.84
2019-05-11T22:11:25.207Z,96114.82
2019-05-11T22:13:51.296Z,96118.59
2019-05-11T22:16:17.535Z,96126.91
2019-05-11T22:18:43.641Z,96131.44
2019-05-11T22:21:09.963Z,96132.49
2019-05-11T22:23:38.434Z,96140.81
2019-05-11T22:26:04.547Z,96141.75
2019-05-11T22:28:30.731Z,96145.70
2019-05-11T22:30:56.895Z,96147.02
2019-05-11T22:33:23.059Z,96153.59
2019-05-11T22:35:49.226Z,96157.55
2019-05-11T22:38:15.468Z,96169.48
2019-05-11T22:40:41.705Z,96177.58
2019-05-11T22:43:09.466Z,96192.27
2019-05-11T22:45:38.277Z,96189.50
2019-05-11T22:48:04.633Z,96191.09
2019-05-11T22:50:30.974Z,96203.41
2019-05-11T22:52:58.020Z,96188.60
2019-05-11T22:55:24.278Z,96194.98
2019-05-11T22:57:50.431Z,96204.20
2019-05-11T23:00:20.471Z,96195.13
2019-05-11T23:02:48.454Z,96201.84
2019-05-11T23:05:14.883Z,96209.30
2019-05-11T23:07:41.771Z,96216.64
2019-05-11T23:10:08.870Z,96217.81
2019-05-11T23:12:35.049Z,96223.85
2019-05-11T23:15:07.969Z,96222.31
2019-05-11T23:17:34.025Z,96220.66
2019-05-11T23:20:00.217Z,96235.33
2019-05-11T23:22:26.487Z,96246.13
2019-05-11T23:24:52.673Z,96244.11
2019-05-11T23:27:18.912Z,96246.95
2019-05-11T23:29:47.585Z,96256.48
2019-05-11T23:32:13.431Z,96260.70
2019-05-11T23:34:39.536Z,96259.39
2019-05-11T23:37:07.914Z,96264.84
2019-05-11T23:39:34.009Z,96256.59
2019-05-11T23:42:00.224Z,96268.08
2019-05-11T23:44:26.406Z,96268.85
2019-05-11T23:46:52.885Z,96274.11
2019-05-11T23:49:19.038Z,96270.44
2019-05-11T23:51:45.306Z,96274.64
2019-05-11T23:54:11.427Z,96284.31
2019-05-11T23:56:38.644Z,96291.16
2019-05-11T23:59:05.303Z,96289.50
